Terminal Aerodrome Forecast
Issued by NWS Upton, NY

Current Version | Previous Version | Text Only | Print | Product List | Glossary On
Versions: 1 2 3 4 5 6 7 8 9 10 11 12 13 14 15 16 17 18 19 20 21 22 23 24 25 26 27 28 29 30 31 32
000 FTUS41 KOKX 241437 AAB TAFISP TAF AMD KISP 241437Z 2415/2512 04014KT 1SM -SHRA BR OVC007 FM241800 01009KT P6SM VCSH OVC014 FM242000 02010KT P6SM VCSH OVC020 FM250200 05010KT P6SM VCSH OVC010=

USA.gov is the U.S. government's official web portal to all federal, state and local government web resources and services.